Milwaukee, Wisconsin
Traffic Map
Current Weather Conditions
Milwaukee, Wisconsin
Scattered Clouds
Scattered Clouds
62°
Feels Like: 62°
Wind Chill: 62° Ceiling: Unl
Heat Index: 62° Visibility: 10mi
Dew Point: 52° Wind: 9mph
Humidity: 70% Direction: 330° (NNW)
Pressure: 29.95in Gusts: 0mph
Raw Report DataKMKE 280552Z 33008KT 10SM SCT085 17/11 A2995 RMK AO2 SLP137 60003 T01670111 10217 20167 402890167 51015
Traffic Incident Summary
Active as of:
Severity:
Category:
InformationThere was an issue retrieving the traffic information for this location. Please try a different location or try again shortly.
Advertisements
Track Severe Weather on mobile